ACA244 ZGGG-CYVR
Flight info
| Callsign | ACA244 |
|---|---|
| Flight time | N/A |
| Altitude | 33000 |
| Route | K0920S1010 BOVMA9 BOVMA W41 OMDUP G471 EGEDA/K0915S1040 G471 PLT/K0919S1010 A599 LEKUV/K0907S1070 A599 JTN G327 LAMEN/N0487F350 A593 SADLI Y590 BEDAR Y591 FUE Y23 KASTE Y81 TASOT Y57 POROT Y809 IDLAN Y812 ADNAP/N0478F370 OTR5 KALNA DCT 43N160E 46N170E 49N180E DCT ROBBN/N0482F390 DCT 53N160W 53N150W 51N140W DCT ORNAI DCT SPONJ DCT GOVAD SHARK4 |
| Aircraft | B77L/H-SDE1E2E3FGHIJ2J3J4J5M1RWXY/LB1D1 |
Departure
| Time | 2026-05-06 16:12 |
|---|---|
| Airport | Guangzhou Baiyun International Airport (ZGGG) |
Arrival
| Time | N/A |
|---|---|
| Airport | Vancouver International Airport (CYVR) |
| Time | Latitude | Longitude | Altitude | Speed | Heading |
|---|---|---|---|---|---|
| 2026-05-06 15:36 | 23.40181 | 113.30080 | 52 ft | 0 kts | 184° |
| 2026-05-06 15:56 | 23.40197 | 113.30081 | 53 ft | 3 kts | 184° |
| 2026-05-06 15:56 | 23.40206 | 113.30081 | 54 ft | 0 kts | 184° |
| 2026-05-06 15:57 | 23.40209 | 113.30082 | 53 ft | 3 kts | 184° |
| 2026-05-06 15:57 | 23.40227 | 113.30083 | 52 ft | 3 kts | 172° |
| 2026-05-06 15:57 | 23.40245 | 113.30076 | 52 ft | 3 kts | 129° |
| 2026-05-06 15:57 | 23.40251 | 113.30066 | 50 ft | 0 kts | 109° |
| 2026-05-06 16:03 | 23.40254 | 113.30095 | 56 ft | 5 kts | 76° |
| 2026-05-06 16:03 | 23.40260 | 113.30135 | 51 ft | 7 kts | 84° |
| 2026-05-06 16:03 | 23.40242 | 113.30244 | 53 ft | 17 kts | 105° |
| 2026-05-06 16:03 | 23.40256 | 113.30366 | 50 ft | 17 kts | 56° |
| 2026-05-06 16:04 | 23.40302 | 113.30481 | 53 ft | 17 kts | 88° |
| 2026-05-06 16:04 | 23.40278 | 113.30606 | 53 ft | 17 kts | 108° |
| 2026-05-06 16:04 | 23.40246 | 113.30727 | 52 ft | 17 kts | 105° |
| 2026-05-06 16:04 | 23.40198 | 113.30827 | 50 ft | 14 kts | 153° |
| 2026-05-06 16:05 | 23.40104 | 113.30820 | 55 ft | 14 kts | 193° |
| 2026-05-06 16:05 | 23.39973 | 113.30784 | 54 ft | 26 kts | 194° |
| 2026-05-06 16:05 | 23.39797 | 113.30736 | 56 ft | 24 kts | 194° |
| 2026-05-06 16:05 | 23.39660 | 113.30697 | 54 ft | 19 kts | 194° |
| 2026-05-06 16:06 | 23.39528 | 113.30665 | 54 ft | 19 kts | 193° |
| 2026-05-06 16:06 | 23.39397 | 113.30630 | 53 ft | 19 kts | 194° |
| 2026-05-06 16:06 | 23.39266 | 113.30595 | 55 ft | 19 kts | 194° |
| 2026-05-06 16:06 | 23.39136 | 113.30559 | 54 ft | 18 kts | 194° |
| 2026-05-06 16:07 | 23.39040 | 113.30533 | 52 ft | 13 kts | 194° |
| 2026-05-06 16:07 | 23.38962 | 113.30566 | 50 ft | 13 kts | 127° |
| 2026-05-06 16:07 | 23.38918 | 113.30612 | 50 ft | 13 kts | 114° |
| 2026-05-06 16:07 | 23.38857 | 113.30677 | 53 ft | 14 kts | 171° |
| 2026-05-06 16:08 | 23.38764 | 113.30658 | 53 ft | 14 kts | 194° |
| 2026-05-06 16:08 | 23.38667 | 113.30632 | 54 ft | 17 kts | 193° |
| 2026-05-06 16:08 | 23.38543 | 113.30600 | 50 ft | 18 kts | 193° |
| 2026-05-06 16:08 | 23.38418 | 113.30568 | 53 ft | 19 kts | 196° |
| 2026-05-06 16:09 | 23.38294 | 113.30531 | 52 ft | 19 kts | 194° |
| 2026-05-06 16:09 | 23.38168 | 113.30500 | 55 ft | 18 kts | 194° |
| 2026-05-06 16:09 | 23.38044 | 113.30465 | 53 ft | 18 kts | 195° |
| 2026-05-06 16:09 | 23.37919 | 113.30429 | 55 ft | 18 kts | 194° |
| 2026-05-06 16:10 | 23.37823 | 113.30428 | 55 ft | 7 kts | 148° |
| 2026-05-06 16:10 | 23.37814 | 113.30437 | 49 ft | 0 kts | 133° |
| 2026-05-06 16:11 | 23.37796 | 113.30469 | 51 ft | 11 kts | 113° |
| 2026-05-06 16:11 | 23.37783 | 113.30551 | 55 ft | 11 kts | 85° |
| 2026-05-06 16:11 | 23.37833 | 113.30610 | 51 ft | 11 kts | 20° |
| 2026-05-06 16:12 | 23.37930 | 113.30636 | 49 ft | 25 kts | 13° |
| 2026-05-06 16:12 | 23.38376 | 113.30754 | 50 ft | 112 kts | 14° |
| 2026-05-06 16:12 | 23.39420 | 113.31042 | 164 ft | 188 kts | 14° |
| 2026-05-06 16:12 | 23.40695 | 113.31400 | 841 ft | 191 kts | 15° |
| 2026-05-06 16:13 | 23.42097 | 113.31803 | 1204 ft | 228 kts | 15° |
| 2026-05-06 16:13 | 23.43684 | 113.32266 | 1927 ft | 247 kts | 16° |
| 2026-05-06 16:13 | 23.45406 | 113.32773 | 2401 ft | 265 kts | 16° |
| 2026-05-06 16:13 | 23.47221 | 113.33311 | 3073 ft | 275 kts | 16° |
| 2026-05-06 16:14 | 23.49058 | 113.33857 | 3712 ft | 279 kts | 15° |
| 2026-05-06 16:14 | 23.50950 | 113.34421 | 3912 ft | 284 kts | 15° |
| 2026-05-06 16:14 | 23.52865 | 113.34992 | 4025 ft | 285 kts | 15° |
| 2026-05-06 16:14 | 23.54773 | 113.35565 | 4849 ft | 284 kts | 15° |
| 2026-05-06 16:15 | 23.56689 | 113.36088 | 5711 ft | 284 kts | 9° |
| 2026-05-06 16:15 | 23.58642 | 113.36463 | 6547 ft | 286 kts | 7° |
| 2026-05-06 16:15 | 23.60611 | 113.36822 | 7269 ft | 288 kts | 10° |
| 2026-05-06 16:15 | 23.62463 | 113.37722 | 7769 ft | 301 kts | 41° |
| 2026-05-06 16:16 | 23.63642 | 113.39596 | 8436 ft | 304 kts | 73° |
| 2026-05-06 16:16 | 23.64129 | 113.41843 | 9066 ft | 307 kts | 78° |
| 2026-05-06 16:16 | 23.64585 | 113.44145 | 9744 ft | 313 kts | 78° |
| 2026-05-06 16:16 | 23.65057 | 113.46475 | 10389 ft | 319 kts | 78° |
| 2026-05-06 16:17 | 23.65556 | 113.48915 | 10624 ft | 341 kts | 77° |
| 2026-05-06 16:17 | 23.66098 | 113.51532 | 10813 ft | 365 kts | 77° |
| 2026-05-06 16:17 | 23.66681 | 113.54320 | 10987 ft | 388 kts | 77° |
| 2026-05-06 16:17 | 23.67296 | 113.57238 | 11414 ft | 401 kts | 77° |
| 2026-05-06 16:18 | 23.67928 | 113.60233 | 12015 ft | 408 kts | 77° |
| 2026-05-06 16:18 | 23.68558 | 113.63226 | 12728 ft | 412 kts | 77° |
| 2026-05-06 16:18 | 23.69204 | 113.66298 | 13440 ft | 416 kts | 77° |
| 2026-05-06 16:18 | 23.69856 | 113.69401 | 14063 ft | 421 kts | 77° |
| 2026-05-06 16:19 | 23.70514 | 113.72533 | 14634 ft | 426 kts | 77° |
| 2026-05-06 16:19 | 23.71178 | 113.75700 | 15272 ft | 429 kts | 77° |
| 2026-05-06 16:19 | 23.71846 | 113.78893 | 15847 ft | 434 kts | 77° |
| 2026-05-06 16:19 | 23.72512 | 113.82092 | 16341 ft | 440 kts | 78° |
| 2026-05-06 16:20 | 23.73195 | 113.85366 | 16919 ft | 444 kts | 77° |
| 2026-05-06 16:20 | 23.73884 | 113.88656 | 17540 ft | 446 kts | 78° |
| 2026-05-06 16:20 | 23.74578 | 113.91974 | 18107 ft | 451 kts | 78° |
| 2026-05-06 16:20 | 23.75278 | 113.95329 | 18593 ft | 455 kts | 77° |
| 2026-05-06 16:21 | 23.75980 | 113.98705 | 19082 ft | 458 kts | 77° |
| 2026-05-06 16:21 | 23.76690 | 114.02120 | 19601 ft | 460 kts | 77° |
| 2026-05-06 16:21 | 23.77399 | 114.05539 | 20093 ft | 463 kts | 77° |
| 2026-05-06 16:21 | 23.78113 | 114.08983 | 20540 ft | 467 kts | 77° |
| 2026-05-06 16:22 | 23.78821 | 114.12410 | 21014 ft | 470 kts | 77° |
| 2026-05-06 16:22 | 23.79544 | 114.15901 | 21482 ft | 473 kts | 77° |
| 2026-05-06 16:22 | 23.80281 | 114.19472 | 21941 ft | 476 kts | 77° |
| 2026-05-06 16:22 | 23.81002 | 114.22965 | 22382 ft | 479 kts | 77° |
| 2026-05-06 16:23 | 23.81935 | 114.26445 | 22635 ft | 480 kts | 64° |
| 2026-05-06 16:23 | 23.83742 | 114.29525 | 22875 ft | 483 kts | 46° |
| 2026-05-06 16:23 | 23.86261 | 114.31922 | 23339 ft | 477 kts | 33° |
| 2026-05-06 16:23 | 23.88971 | 114.34046 | 23702 ft | 481 kts | 33° |
| 2026-05-06 16:24 | 23.91694 | 114.36203 | 24068 ft | 484 kts | 34° |
| 2026-05-06 16:24 | 23.94412 | 114.38381 | 24486 ft | 484 kts | 34° |
| 2026-05-06 16:24 | 23.97127 | 114.40577 | 24846 ft | 487 kts | 34° |
| 2026-05-06 16:24 | 23.99859 | 114.42802 | 25167 ft | 490 kts | 34° |
| 2026-05-06 16:25 | 24.02552 | 114.45003 | 25533 ft | 492 kts | 34° |
| 2026-05-06 16:25 | 24.05293 | 114.47249 | 25918 ft | 493 kts | 34° |
| 2026-05-06 16:25 | 24.08048 | 114.49510 | 26302 ft | 495 kts | 34° |
| 2026-05-06 16:25 | 24.10805 | 114.51774 | 26662 ft | 497 kts | 34° |
| 2026-05-06 16:26 | 24.13586 | 114.54057 | 27016 ft | 499 kts | 34° |
| 2026-05-06 16:26 | 24.16373 | 114.56343 | 27364 ft | 501 kts | 34° |
| 2026-05-06 16:26 | 24.19168 | 114.58639 | 27725 ft | 504 kts | 34° |
| 2026-05-06 16:26 | 24.21948 | 114.60924 | 28038 ft | 506 kts | 34° |
| 2026-05-06 16:27 | 24.24768 | 114.63244 | 28341 ft | 508 kts | 34° |
| 2026-05-06 16:27 | 24.27597 | 114.65572 | 28686 ft | 510 kts | 34° |
| 2026-05-06 16:27 | 24.30444 | 114.67918 | 29016 ft | 511 kts | 34° |
| 2026-05-06 16:27 | 24.33301 | 114.70271 | 29326 ft | 513 kts | 34° |
| 2026-05-06 16:28 | 24.36161 | 114.72628 | 29618 ft | 515 kts | 34° |
| 2026-05-06 16:28 | 24.39031 | 114.74995 | 29897 ft | 517 kts | 34° |
| 2026-05-06 16:28 | 24.41904 | 114.77370 | 30212 ft | 517 kts | 33° |
| 2026-05-06 16:28 | 24.44779 | 114.79743 | 30496 ft | 517 kts | 33° |
| 2026-05-06 16:29 | 24.47652 | 114.82116 | 30810 ft | 517 kts | 33° |
| 2026-05-06 16:29 | 24.50528 | 114.84494 | 31143 ft | 517 kts | 33° |
| 2026-05-06 16:29 | 24.53365 | 114.86841 | 31448 ft | 516 kts | 34° |
| 2026-05-06 16:29 | 24.56235 | 114.89208 | 31799 ft | 515 kts | 32° |
| 2026-05-06 16:30 | 24.59238 | 114.91317 | 32124 ft | 510 kts | 25° |
| 2026-05-06 16:30 | 24.61385 | 114.92493 | 32339 ft | 507 kts | 20° |
| 2026-05-06 16:30 | 24.65738 | 114.94315 | 32773 ft | 502 kts | 12° |
| 2026-05-06 16:30 | 24.69133 | 114.95206 | 32941 ft | 502 kts | 7° |
| 2026-05-06 16:31 | 24.75988 | 114.96784 | 32972 ft | 501 kts | 8° |
| 2026-05-06 16:31 | 24.82736 | 114.98437 | 32976 ft | 498 kts | 8° |
| 2026-05-06 16:32 | 24.89515 | 115.00097 | 32965 ft | 497 kts | 8° |
| 2026-05-06 16:32 | 24.96266 | 115.01746 | 32981 ft | 497 kts | 8° |
| 2026-05-06 16:33 | 25.03018 | 115.03397 | 32971 ft | 497 kts | 8° |
| 2026-05-06 16:34 | 25.13172 | 115.05884 | 32964 ft | 498 kts | 8° |
| 2026-05-06 16:34 | 25.19941 | 115.07546 | 32967 ft | 499 kts | 8° |
| 2026-05-06 16:35 | 25.26733 | 115.09214 | 32970 ft | 500 kts | 8° |
| 2026-05-06 16:35 | 25.33498 | 115.10271 | 32944 ft | 490 kts | 352° |
| 2026-05-06 16:36 | 25.40046 | 115.08693 | 32952 ft | 477 kts | 332° |
| 2026-05-06 16:36 | 25.46002 | 115.05528 | 32953 ft | 476 kts | 330° |
| 2026-05-06 16:37 | 25.52012 | 115.02362 | 32974 ft | 478 kts | 331° |
| 2026-05-06 16:37 | 25.58047 | 114.99244 | 32954 ft | 479 kts | 331° |
| 2026-05-06 16:38 | 25.64086 | 114.96136 | 32949 ft | 478 kts | 331° |
| 2026-05-06 16:38 | 25.70066 | 114.93050 | 32925 ft | 476 kts | 331° |
| 2026-05-06 16:39 | 25.76282 | 114.90568 | 32941 ft | 483 kts | 350° |
| 2026-05-06 16:39 | 25.79666 | 114.90693 | 32940 ft | 494 kts | 6° |
| 2026-05-06 16:39 | 25.82993 | 114.91804 | 32978 ft | 504 kts | 18° |
| 2026-05-06 16:39 | 25.86096 | 114.93680 | 32927 ft | 515 kts | 32° |
| 2026-05-06 16:40 | 25.88735 | 114.96394 | 32961 ft | 519 kts | 43° |
| 2026-05-06 16:40 | 25.93609 | 115.02380 | 32950 ft | 523 kts | 44° |
| 2026-05-06 16:41 | 25.98487 | 115.08403 | 32919 ft | 525 kts | 44° |
| 2026-05-06 16:41 | 26.03442 | 115.14367 | 32931 ft | 525 kts | 43° |
| 2026-05-06 16:42 | 26.08410 | 115.20276 | 32930 ft | 525 kts | 43° |
| 2026-05-06 16:42 | 26.13403 | 115.26215 | 32932 ft | 525 kts | 43° |
| 2026-05-06 16:43 | 26.18385 | 115.32157 | 32936 ft | 524 kts | 43° |
| 2026-05-06 16:43 | 26.23347 | 115.38090 | 32932 ft | 522 kts | 43° |
| 2026-05-06 16:44 | 26.28291 | 115.44008 | 32950 ft | 521 kts | 43° |
| 2026-05-06 16:44 | 26.33206 | 115.49898 | 32944 ft | 521 kts | 43° |
| 2026-05-06 16:45 | 26.38150 | 115.55832 | 32943 ft | 522 kts | 43° |
| 2026-05-06 16:45 | 26.43092 | 115.61770 | 32939 ft | 522 kts | 43° |
| 2026-05-06 16:46 | 26.48027 | 115.67707 | 32943 ft | 522 kts | 43° |
| 2026-05-06 16:46 | 26.52958 | 115.73652 | 32951 ft | 522 kts | 43° |
| 2026-05-06 16:47 | 26.57898 | 115.79617 | 32951 ft | 523 kts | 43° |
| 2026-05-06 16:47 | 26.62843 | 115.85594 | 32945 ft | 524 kts | 43° |
| 2026-05-06 16:48 | 26.67796 | 115.91585 | 32954 ft | 524 kts | 43° |
| 2026-05-06 16:48 | 26.72744 | 115.97581 | 32964 ft | 524 kts | 43° |
| 2026-05-06 16:49 | 26.77686 | 116.03579 | 32954 ft | 524 kts | 43° |
| 2026-05-06 16:49 | 26.82627 | 116.09582 | 32940 ft | 524 kts | 44° |
| 2026-05-06 16:50 | 26.87531 | 116.15552 | 32949 ft | 524 kts | 43° |
| 2026-05-06 16:50 | 26.92465 | 116.21563 | 32947 ft | 524 kts | 43° |
| 2026-05-06 16:51 | 26.97423 | 116.27546 | 32943 ft | 524 kts | 43° |
| 2026-05-06 16:51 | 27.02399 | 116.33531 | 32947 ft | 524 kts | 43° |
| 2026-05-06 16:52 | 27.07364 | 116.39522 | 32945 ft | 524 kts | 43° |
| 2026-05-06 16:52 | 27.11478 | 116.44499 | 32939 ft | 524 kts | 43° |
| 2026-05-06 16:53 | 27.16436 | 116.50505 | 32951 ft | 524 kts | 43° |
| 2026-05-06 16:53 | 27.21396 | 116.56515 | 32945 ft | 524 kts | 43° |
| 2026-05-06 16:54 | 27.26442 | 116.62429 | 32936 ft | 524 kts | 42° |
| 2026-05-06 16:54 | 27.31496 | 116.68260 | 32945 ft | 523 kts | 42° |
| 2026-05-06 16:55 | 27.36569 | 116.74155 | 32935 ft | 524 kts | 42° |
| 2026-05-06 16:55 | 27.41633 | 116.80073 | 32945 ft | 525 kts | 42° |
| 2026-05-06 16:56 | 27.46694 | 116.85998 | 32945 ft | 525 kts | 42° |
| 2026-05-06 16:56 | 27.51757 | 116.91930 | 32948 ft | 525 kts | 42° |
| 2026-05-06 16:57 | 27.56842 | 116.97832 | 32943 ft | 524 kts | 42° |
| 2026-05-06 16:57 | 27.61947 | 117.03716 | 32952 ft | 525 kts | 42° |
| 2026-05-06 16:58 | 27.67013 | 117.09572 | 32952 ft | 525 kts | 42° |
| 2026-05-06 16:58 | 27.72111 | 117.15481 | 32963 ft | 525 kts | 42° |
| 2026-05-06 16:59 | 27.77191 | 117.21387 | 32947 ft | 524 kts | 42° |
| 2026-05-06 16:59 | 27.82265 | 117.27291 | 32978 ft | 523 kts | 42° |
| 2026-05-06 17:00 | 27.87333 | 117.33205 | 32938 ft | 524 kts | 42° |
| 2026-05-06 17:00 | 27.92410 | 117.39113 | 32959 ft | 524 kts | 42° |
| 2026-05-06 17:01 | 27.97444 | 117.44989 | 32939 ft | 524 kts | 42° |
| 2026-05-06 17:01 | 28.02512 | 117.50917 | 32955 ft | 524 kts | 42° |
| 2026-05-06 17:02 | 28.07582 | 117.56876 | 32956 ft | 525 kts | 41° |
| 2026-05-06 17:02 | 28.12660 | 117.62819 | 32956 ft | 525 kts | 41° |
| 2026-05-06 17:03 | 28.17750 | 117.68778 | 32956 ft | 525 kts | 41° |
| 2026-05-06 17:03 | 28.22798 | 117.74710 | 32954 ft | 525 kts | 42° |
| 2026-05-06 17:04 | 28.27870 | 117.80679 | 32938 ft | 525 kts | 42° |
| 2026-05-06 17:04 | 28.32936 | 117.86650 | 32947 ft | 524 kts | 42° |
| 2026-05-06 17:05 | 28.37964 | 117.92583 | 32941 ft | 524 kts | 42° |
| 2026-05-06 17:05 | 28.43009 | 117.98557 | 32941 ft | 524 kts | 42° |
| 2026-05-06 17:06 | 28.47981 | 118.04637 | 32939 ft | 525 kts | 43° |
| 2026-05-06 17:06 | 28.52919 | 118.10756 | 32941 ft | 525 kts | 43° |
| 2026-05-06 17:07 | 28.57870 | 118.16881 | 32938 ft | 525 kts | 43° |
| 2026-05-06 17:07 | 28.62822 | 118.22994 | 32937 ft | 525 kts | 43° |
| 2026-05-06 17:08 | 28.67774 | 118.29108 | 32947 ft | 525 kts | 43° |
| 2026-05-06 17:08 | 28.72727 | 118.35236 | 32943 ft | 526 kts | 43° |
| 2026-05-06 17:09 | 28.77682 | 118.41377 | 32940 ft | 526 kts | 43° |
| 2026-05-06 17:09 | 28.82611 | 118.47497 | 32942 ft | 526 kts | 43° |
| 2026-05-06 17:10 | 28.87567 | 118.53670 | 32938 ft | 527 kts | 43° |
| 2026-05-06 17:10 | 28.92532 | 118.59831 | 32949 ft | 528 kts | 43° |
| 2026-05-06 17:11 | 28.97500 | 118.66030 | 32946 ft | 528 kts | 43° |
| 2026-05-06 17:11 | 29.02432 | 118.72194 | 32937 ft | 529 kts | 44° |
| 2026-05-06 17:12 | 29.07399 | 118.78406 | 32960 ft | 530 kts | 44° |
| 2026-05-06 17:12 | 29.12401 | 118.84626 | 32914 ft | 531 kts | 44° |
| 2026-05-06 17:13 | 29.17345 | 118.90887 | 32946 ft | 529 kts | 44° |
| 2026-05-06 17:13 | 29.22328 | 118.97136 | 32949 ft | 529 kts | 44° |
| 2026-05-06 17:14 | 29.27247 | 119.03338 | 32954 ft | 529 kts | 44° |
| 2026-05-06 17:14 | 29.32190 | 119.09594 | 32937 ft | 528 kts | 44° |
| 2026-05-06 17:15 | 29.37115 | 119.15820 | 32916 ft | 527 kts | 44° |
| 2026-05-06 17:15 | 29.42026 | 119.22044 | 32938 ft | 527 kts | 44° |
| 2026-05-06 17:16 | 29.46962 | 119.28293 | 32936 ft | 527 kts | 44° |
| 2026-05-06 17:16 | 29.51866 | 119.34506 | 32941 ft | 528 kts | 44° |
| 2026-05-06 17:17 | 29.56787 | 119.40768 | 32940 ft | 528 kts | 44° |
| 2026-05-06 17:17 | 29.61693 | 119.47067 | 32934 ft | 528 kts | 44° |
| 2026-05-06 17:18 | 29.66593 | 119.53382 | 32938 ft | 530 kts | 45° |
| 2026-05-06 17:18 | 29.71475 | 119.59728 | 32941 ft | 530 kts | 45° |
| 2026-05-06 17:19 | 29.76701 | 119.65658 | 32938 ft | 525 kts | 35° |
| 2026-05-06 17:19 | 29.82616 | 119.70401 | 32948 ft | 518 kts | 26° |
| 2026-05-06 17:20 | 29.88885 | 119.74536 | 32923 ft | 519 kts | 25° |
| 2026-05-06 17:20 | 29.95153 | 119.78680 | 32947 ft | 520 kts | 26° |
| 2026-05-06 17:21 | 30.01414 | 119.82882 | 32912 ft | 521 kts | 27° |
| 2026-05-06 17:21 | 30.07683 | 119.87118 | 32932 ft | 522 kts | 27° |
| 2026-05-06 17:22 | 30.13952 | 119.91361 | 32921 ft | 522 kts | 27° |
| 2026-05-06 17:22 | 30.20212 | 119.95602 | 32937 ft | 522 kts | 27° |
| 2026-05-06 17:23 | 30.26478 | 119.99850 | 32915 ft | 522 kts | 27° |
| 2026-05-06 17:23 | 30.32733 | 120.04098 | 32931 ft | 521 kts | 27° |
| 2026-05-06 17:24 | 30.38983 | 120.08349 | 32924 ft | 520 kts | 27° |
| 2026-05-06 17:24 | 30.45192 | 120.12580 | 32925 ft | 520 kts | 27° |
| 2026-05-06 17:25 | 30.51428 | 120.16828 | 32914 ft | 520 kts | 27° |
| 2026-05-06 17:25 | 30.57669 | 120.21077 | 32918 ft | 519 kts | 27° |
| 2026-05-06 17:26 | 30.63899 | 120.25325 | 32919 ft | 519 kts | 27° |
| 2026-05-06 17:26 | 30.70129 | 120.29582 | 32926 ft | 519 kts | 27° |
| 2026-05-06 17:27 | 30.76351 | 120.33841 | 32919 ft | 519 kts | 28° |
| 2026-05-06 17:27 | 30.82584 | 120.38113 | 32921 ft | 519 kts | 28° |
| 2026-05-06 17:28 | 30.88304 | 120.43093 | 32930 ft | 524 kts | 48° |
| 2026-05-06 17:28 | 30.90388 | 120.46582 | 32927 ft | 527 kts | 61° |
| 2026-05-06 17:28 | 30.91787 | 120.50524 | 32919 ft | 526 kts | 74° |
| 2026-05-06 17:29 | 30.93619 | 120.58801 | 32924 ft | 529 kts | 75° |
| 2026-05-06 17:29 | 30.95582 | 120.67080 | 32930 ft | 532 kts | 74° |
| 2026-05-06 17:30 | 30.97621 | 120.75388 | 32924 ft | 534 kts | 74° |
| 2026-05-06 17:30 | 30.99666 | 120.83722 | 32925 ft | 535 kts | 74° |
| 2026-05-06 17:31 | 31.01715 | 120.92072 | 32922 ft | 535 kts | 74° |
| 2026-05-06 17:31 | 31.03753 | 121.00413 | 32913 ft | 534 kts | 74° |
| 2026-05-06 17:32 | 31.05769 | 121.08692 | 32935 ft | 533 kts | 74° |
| 2026-05-06 17:32 | 31.07801 | 121.17012 | 32932 ft | 533 kts | 73° |
| 2026-05-06 17:33 | 31.09972 | 121.25271 | 32930 ft | 532 kts | 72° |
| 2026-05-06 17:33 | 31.11533 | 121.33692 | 32947 ft | 531 kts | 86° |
| 2026-05-06 17:34 | 31.11379 | 121.42271 | 32933 ft | 529 kts | 100° |
| 2026-05-06 17:34 | 31.10177 | 121.50734 | 32937 ft | 528 kts | 101° |
| 2026-05-06 17:35 | 31.08976 | 121.59199 | 32934 ft | 529 kts | 101° |
| 2026-05-06 17:35 | 31.07829 | 121.67638 | 32947 ft | 530 kts | 101° |
| 2026-05-06 17:36 | 31.06116 | 121.80407 | 32935 ft | 531 kts | 101° |
| 2026-05-06 17:36 | 31.04961 | 121.88929 | 32958 ft | 532 kts | 101° |
| 2026-05-06 17:37 | 31.03796 | 121.97462 | 32970 ft | 533 kts | 101° |
| 2026-05-06 17:37 | 31.02625 | 122.06001 | 32969 ft | 533 kts | 101° |
| 2026-05-06 17:38 | 31.01457 | 122.14485 | 32972 ft | 533 kts | 100° |
| 2026-05-06 17:38 | 31.00287 | 122.23027 | 32978 ft | 534 kts | 99° |
| 2026-05-06 17:39 | 30.99900 | 122.31680 | 32990 ft | 535 kts | 89° |
| 2026-05-06 17:39 | 31.00013 | 122.40348 | 32984 ft | 535 kts | 90° |
| 2026-05-06 17:40 | 31.00011 | 122.47564 | 32987 ft | 536 kts | 90° |
| 2026-05-06 17:40 | 31.00003 | 122.56254 | 32987 ft | 536 kts | 90° |
| 2026-05-06 17:41 | 31.00000 | 122.66372 | 33002 ft | 537 kts | 90° |
| 2026-05-06 17:41 | 31.00005 | 122.73682 | 32993 ft | 538 kts | 90° |
| 2026-05-06 17:42 | 31.00011 | 122.82355 | 32996 ft | 538 kts | 90° |
| 2026-05-06 17:42 | 31.00010 | 122.91088 | 32990 ft | 538 kts | 90° |
| 2026-05-06 17:43 | 31.00997 | 122.99657 | 33002 ft | 534 kts | 70° |
| 2026-05-06 17:43 | 31.04253 | 123.07357 | 32996 ft | 527 kts | 51° |
| 2026-05-06 17:44 | 31.08592 | 123.14180 | 33021 ft | 528 kts | 50° |
| 2026-05-06 17:44 | 31.12941 | 123.21114 | 33003 ft | 530 kts | 51° |
| 2026-05-06 17:45 | 31.17237 | 123.28126 | 33002 ft | 531 kts | 52° |
| 2026-05-06 17:45 | 31.21522 | 123.35174 | 33002 ft | 531 kts | 52° |
| 2026-05-06 17:46 | 31.25805 | 123.42218 | 33015 ft | 531 kts | 52° |
| 2026-05-06 17:46 | 31.30080 | 123.49253 | 33008 ft | 530 kts | 52° |
| 2026-05-06 17:47 | 31.34345 | 123.56280 | 33010 ft | 529 kts | 52° |
| 2026-05-06 17:47 | 31.38632 | 123.63282 | 33009 ft | 528 kts | 52° |
| 2026-05-06 17:48 | 31.42894 | 123.70235 | 33022 ft | 528 kts | 52° |
| 2026-05-06 17:48 | 31.47156 | 123.77216 | 33009 ft | 527 kts | 52° |
| 2026-05-06 17:49 | 31.51410 | 123.84205 | 33010 ft | 526 kts | 52° |
| 2026-05-06 17:49 | 31.55650 | 123.91180 | 33016 ft | 525 kts | 52° |
| 2026-05-06 17:50 | 31.59647 | 123.98363 | 33001 ft | 527 kts | 60° |
| 2026-05-06 17:50 | 31.62491 | 124.06260 | 33018 ft | 530 kts | 72° |
| 2026-05-06 17:51 | 31.64376 | 124.14685 | 33024 ft | 530 kts | 75° |
| 2026-05-06 17:51 | 31.66164 | 124.23052 | 33019 ft | 531 kts | 75° |
| 2026-05-06 17:52 | 31.68003 | 124.31454 | 33033 ft | 531 kts | 74° |
| 2026-05-06 17:52 | 31.69866 | 124.39860 | 33022 ft | 531 kts | 74° |
| 2026-05-06 17:53 | 31.71723 | 124.48256 | 33017 ft | 531 kts | 74° |
| 2026-05-06 17:53 | 31.73559 | 124.56598 | 33024 ft | 530 kts | 75° |
| 2026-05-06 17:54 | 31.75396 | 124.64985 | 33024 ft | 529 kts | 75° |
| 2026-05-06 17:54 | 31.77226 | 124.73366 | 33030 ft | 529 kts | 75° |
| 2026-05-06 17:55 | 31.79047 | 124.81734 | 33027 ft | 528 kts | 75° |
| 2026-05-06 17:55 | 31.80863 | 124.90104 | 33030 ft | 528 kts | 75° |
| 2026-05-06 17:56 | 31.82223 | 124.98509 | 33024 ft | 528 kts | 86° |
| 2026-05-06 17:56 | 31.81971 | 125.07125 | 33029 ft | 526 kts | 100° |
| 2026-05-06 17:57 | 31.80550 | 125.15560 | 33033 ft | 525 kts | 103° |
| 2026-05-06 17:57 | 31.79097 | 125.23981 | 33029 ft | 526 kts | 102° |
| 2026-05-06 17:58 | 31.77707 | 125.32370 | 33033 ft | 526 kts | 102° |
| 2026-05-06 17:58 | 31.76324 | 125.40824 | 33033 ft | 526 kts | 102° |
| 2026-05-06 17:59 | 31.74930 | 125.49283 | 33048 ft | 527 kts | 102° |
| 2026-05-06 17:59 | 31.73529 | 125.57733 | 33028 ft | 527 kts | 102° |
| 2026-05-06 18:00 | 31.72827 | 125.66295 | 33031 ft | 528 kts | 88° |
| 2026-05-06 18:00 | 31.73785 | 125.74761 | 33034 ft | 527 kts | 75° |
| 2026-05-06 18:01 | 31.75722 | 125.83050 | 33038 ft | 526 kts | 74° |
| 2026-05-06 18:01 | 31.77587 | 125.91378 | 33032 ft | 526 kts | 75° |
| 2026-05-06 18:02 | 31.79393 | 125.99715 | 33033 ft | 526 kts | 75° |
| 2026-05-06 18:02 | 31.81215 | 126.08043 | 33037 ft | 527 kts | 75° |
| 2026-05-06 18:03 | 31.83039 | 126.16395 | 33032 ft | 527 kts | 75° |
| 2026-05-06 18:03 | 31.84859 | 126.24765 | 33035 ft | 527 kts | 75° |
| 2026-05-06 18:04 | 31.86655 | 126.33068 | 33033 ft | 526 kts | 75° |
| 2026-05-06 18:04 | 31.88454 | 126.41408 | 33031 ft | 525 kts | 75° |
| 2026-05-06 18:05 | 31.90250 | 126.49753 | 33032 ft | 525 kts | 75° |
| 2026-05-06 18:05 | 31.92083 | 126.58081 | 33030 ft | 524 kts | 75° |
| 2026-05-06 18:06 | 31.93924 | 126.66375 | 33028 ft | 524 kts | 75° |
| 2026-05-06 18:06 | 31.95745 | 126.74637 | 33030 ft | 523 kts | 75° |
| 2026-05-06 18:07 | 31.97562 | 126.82935 | 33030 ft | 522 kts | 75° |
| 2026-05-06 18:07 | 31.99371 | 126.91222 | 33038 ft | 522 kts | 75° |
| 2026-05-06 18:08 | 32.01174 | 126.99513 | 33032 ft | 523 kts | 75° |
| 2026-05-06 18:08 | 32.02975 | 127.07815 | 33032 ft | 522 kts | 75° |
| 2026-05-06 18:09 | 32.05211 | 127.15891 | 33018 ft | 520 kts | 65° |
| 2026-05-06 18:09 | 32.08241 | 127.23625 | 33029 ft | 520 kts | 64° |
| 2026-05-06 18:10 | 32.11234 | 127.31396 | 33029 ft | 520 kts | 64° |
| 2026-05-06 18:10 | 32.14171 | 127.39195 | 33029 ft | 520 kts | 65° |
| 2026-05-06 18:11 | 32.17097 | 127.47007 | 33028 ft | 519 kts | 65° |
| 2026-05-06 18:11 | 32.19993 | 127.54754 | 33036 ft | 518 kts | 65° |
| 2026-05-06 18:12 | 32.22904 | 127.62557 | 33028 ft | 518 kts | 65° |
| 2026-05-06 18:12 | 32.25811 | 127.70362 | 33031 ft | 518 kts | 65° |
| 2026-05-06 18:13 | 32.28703 | 127.78147 | 33030 ft | 517 kts | 65° |
| 2026-05-06 18:13 | 32.31584 | 127.85920 | 33023 ft | 516 kts | 65° |
| 2026-05-06 18:14 | 32.34460 | 127.93697 | 33031 ft | 516 kts | 65° |
| 2026-05-06 18:14 | 32.37329 | 128.01475 | 33033 ft | 515 kts | 65° |
| 2026-05-06 18:15 | 32.40170 | 128.09194 | 33026 ft | 514 kts | 65° |
| 2026-05-06 18:15 | 32.43019 | 128.16951 | 33030 ft | 514 kts | 65° |
| 2026-05-06 18:16 | 32.45865 | 128.24720 | 33039 ft | 512 kts | 65° |
| 2026-05-06 18:16 | 32.48695 | 128.32462 | 33028 ft | 511 kts | 65° |
| 2026-05-06 18:17 | 32.51513 | 128.40188 | 33047 ft | 510 kts | 65° |
| 2026-05-06 18:17 | 32.54326 | 128.47916 | 33035 ft | 511 kts | 65° |
| 2026-05-06 18:18 | 32.57125 | 128.55626 | 33038 ft | 513 kts | 65° |
| 2026-05-06 18:18 | 32.59941 | 128.63403 | 33037 ft | 514 kts | 65° |
| 2026-05-06 18:19 | 32.62763 | 128.71215 | 33048 ft | 514 kts | 65° |
| 2026-05-06 18:19 | 32.65576 | 128.79016 | 33029 ft | 514 kts | 65° |
| 2026-05-06 18:20 | 32.67912 | 128.87029 | 33035 ft | 514 kts | 76° |
| 2026-05-06 18:20 | 32.69542 | 128.95279 | 33044 ft | 512 kts | 76° |
| 2026-05-06 18:21 | 32.71155 | 129.03453 | 33044 ft | 511 kts | 76° |
| 2026-05-06 18:21 | 32.72814 | 129.11671 | 33040 ft | 512 kts | 76° |
| 2026-05-06 18:22 | 32.74486 | 129.19896 | 33045 ft | 511 kts | 75° |
| 2026-05-06 18:22 | 32.76148 | 129.28109 | 33039 ft | 510 kts | 76° |
| 2026-05-06 18:23 | 32.77801 | 129.36317 | 33037 ft | 510 kts | 75° |
| 2026-05-06 18:23 | 32.79431 | 129.44442 | 33040 ft | 509 kts | 76° |
| 2026-05-06 18:24 | 32.81065 | 129.52620 | 33036 ft | 508 kts | 76° |
| 2026-05-06 18:24 | 32.82694 | 129.60801 | 33043 ft | 507 kts | 76° |
| 2026-05-06 18:25 | 32.84307 | 129.68967 | 33036 ft | 507 kts | 77° |
| 2026-05-06 18:25 | 32.85585 | 129.77217 | 33044 ft | 506 kts | 79° |
| 2026-05-06 18:26 | 32.86750 | 129.85485 | 33046 ft | 507 kts | 79° |
| 2026-05-06 18:26 | 32.87914 | 129.93706 | 33041 ft | 507 kts | 79° |
| 2026-05-06 18:27 | 32.89101 | 130.01974 | 33044 ft | 507 kts | 79° |
| 2026-05-06 18:27 | 32.90290 | 130.10251 | 33039 ft | 506 kts | 79° |
| 2026-05-06 18:28 | 32.91275 | 130.17128 | 33041 ft | 506 kts | 79° |
| 2026-05-06 18:28 | 32.92450 | 130.25389 | 33036 ft | 506 kts | 79° |
| 2026-05-06 18:29 | 32.93617 | 130.33633 | 33043 ft | 505 kts | 79° |
| 2026-05-06 18:29 | 32.94780 | 130.41892 | 33041 ft | 505 kts | 79° |
| 2026-05-06 18:30 | 32.95935 | 130.50136 | 33048 ft | 504 kts | 79° |
| 2026-05-06 18:30 | 32.97085 | 130.58380 | 33046 ft | 504 kts | 79° |
| 2026-05-06 18:31 | 32.98220 | 130.66556 | 33054 ft | 504 kts | 79° |
| 2026-05-06 18:31 | 32.99357 | 130.74791 | 33049 ft | 504 kts | 79° |
| 2026-05-06 18:32 | 33.00489 | 130.83030 | 33052 ft | 504 kts | 79° |
| 2026-05-06 18:32 | 33.01618 | 130.91290 | 33057 ft | 504 kts | 79° |
| 2026-05-06 18:33 | 33.02740 | 130.99548 | 33059 ft | 505 kts | 80° |
| 2026-05-06 18:33 | 33.03860 | 131.07820 | 33063 ft | 505 kts | 80° |
| 2026-05-06 18:34 | 33.04974 | 131.16098 | 33075 ft | 505 kts | 79° |
| 2026-05-06 18:34 | 33.06081 | 131.24361 | 33066 ft | 504 kts | 79° |
| 2026-05-06 18:35 | 33.07180 | 131.32613 | 33071 ft | 504 kts | 80° |
| 2026-05-06 18:35 | 33.08265 | 131.40796 | 33078 ft | 503 kts | 79° |
| 2026-05-06 18:36 | 33.09356 | 131.49060 | 33067 ft | 503 kts | 79° |
| 2026-05-06 18:36 | 33.10438 | 131.57302 | 33073 ft | 502 kts | 79° |
| 2026-05-06 18:37 | 33.11505 | 131.65482 | 33060 ft | 502 kts | 79° |
| 2026-05-06 18:37 | 33.12573 | 131.73701 | 33069 ft | 501 kts | 79° |
| 2026-05-06 18:38 | 33.13635 | 131.81916 | 33058 ft | 501 kts | 79° |
| 2026-05-06 18:38 | 33.14692 | 131.90139 | 33057 ft | 500 kts | 79° |
| 2026-05-06 18:39 | 33.15742 | 131.98350 | 33058 ft | 500 kts | 79° |
| 2026-05-06 18:40 | 33.17306 | 132.10667 | 33062 ft | 500 kts | 80° |
| 2026-05-06 18:40 | 33.18333 | 132.18849 | 33061 ft | 501 kts | 80° |
| 2026-05-06 18:41 | 33.19351 | 132.27074 | 33058 ft | 501 kts | 80° |
| 2026-05-06 18:41 | 33.20366 | 132.35318 | 33067 ft | 501 kts | 80° |
| 2026-05-06 18:42 | 33.21377 | 132.43558 | 33075 ft | 501 kts | 80° |
| 2026-05-06 18:42 | 33.22381 | 132.51794 | 33067 ft | 501 kts | 80° |
| 2026-05-06 18:43 | 33.23375 | 132.59984 | 33078 ft | 501 kts | 80° |
| 2026-05-06 18:43 | 33.24386 | 132.68227 | 33063 ft | 501 kts | 80° |
| 2026-05-06 18:44 | 33.25401 | 132.76445 | 33065 ft | 499 kts | 80° |
| 2026-05-06 18:44 | 33.26409 | 132.84678 | 33083 ft | 499 kts | 81° |
| 2026-05-06 18:45 | 33.27406 | 132.92885 | 33085 ft | 499 kts | 80° |
| 2026-05-06 18:45 | 33.28393 | 133.01050 | 33077 ft | 500 kts | 81° |
| 2026-05-06 18:46 | 33.29381 | 133.09281 | 33081 ft | 500 kts | 81° |
| 2026-05-06 18:46 | 33.30346 | 133.17514 | 33071 ft | 500 kts | 81° |
| 2026-05-06 18:47 | 33.31303 | 133.25770 | 33080 ft | 500 kts | 81° |
| 2026-05-06 18:47 | 33.32255 | 133.33996 | 33069 ft | 500 kts | 81° |
| 2026-05-06 18:48 | 33.33202 | 133.42224 | 33065 ft | 499 kts | 81° |
| 2026-05-06 18:48 | 33.34145 | 133.50464 | 33059 ft | 500 kts | 81° |
| 2026-05-06 18:49 | 33.35083 | 133.58708 | 33046 ft | 501 kts | 81° |
| 2026-05-06 18:49 | 33.36017 | 133.66962 | 33036 ft | 502 kts | 82° |
| 2026-05-06 18:50 | 33.36949 | 133.75250 | 33053 ft | 503 kts | 82° |
| 2026-05-06 18:50 | 33.37872 | 133.83514 | 33058 ft | 505 kts | 82° |
| 2026-05-06 18:51 | 33.38798 | 133.91868 | 33054 ft | 507 kts | 82° |
| 2026-05-06 18:51 | 33.39725 | 134.00254 | 33056 ft | 507 kts | 82° |
| 2026-05-06 18:52 | 33.40644 | 134.08629 | 33048 ft | 509 kts | 82° |
| 2026-05-06 18:52 | 33.41562 | 134.17069 | 33048 ft | 512 kts | 82° |
| 2026-05-06 18:53 | 33.42474 | 134.25483 | 33047 ft | 514 kts | 82° |
| 2026-05-06 18:53 | 33.43389 | 134.34000 | 33063 ft | 517 kts | 83° |
| 2026-05-06 18:54 | 33.44304 | 134.42563 | 33052 ft | 520 kts | 83° |
| 2026-05-06 18:54 | 33.45221 | 134.51194 | 33047 ft | 524 kts | 83° |
| 2026-05-06 18:55 | 33.46128 | 134.59837 | 33039 ft | 518 kts | 83° |
| 2026-05-06 18:55 | 33.47024 | 134.68416 | 33044 ft | 524 kts | 83° |
| 2026-05-06 18:56 | 33.47929 | 134.77173 | 33051 ft | 533 kts | 83° |
| 2026-05-06 18:56 | 33.48836 | 134.85993 | 33039 ft | 533 kts | 83° |
| 2026-05-06 18:57 | 33.49721 | 134.94651 | 33037 ft | 513 kts | 83° |
| 2026-05-06 18:57 | 33.50580 | 135.03070 | 33033 ft | 516 kts | 83° |
| 2026-05-06 18:58 | 33.51460 | 135.11707 | 33066 ft | 528 kts | 83° |
| 2026-05-06 18:58 | 33.52351 | 135.20503 | 33056 ft | 533 kts | 83° |
| 2026-05-06 18:59 | 33.53242 | 135.29352 | 33044 ft | 536 kts | 84° |
| 2026-05-06 18:59 | 33.54128 | 135.38241 | 33045 ft | 538 kts | 84° |
| 2026-05-06 19:00 | 33.55012 | 135.47172 | 33059 ft | 540 kts | 84° |
| 2026-05-06 19:00 | 33.55883 | 135.56036 | 33040 ft | 537 kts | 84° |
| 2026-05-06 19:01 | 33.56750 | 135.64925 | 33041 ft | 535 kts | 84° |
| 2026-05-06 19:01 | 33.57611 | 135.73791 | 33066 ft | 536 kts | 85° |
| 2026-05-06 19:02 | 33.58464 | 135.82711 | 33058 ft | 543 kts | 85° |
| 2026-05-06 19:02 | 33.59328 | 135.91792 | 33060 ft | 550 kts | 85° |
| 2026-05-06 19:03 | 33.60192 | 136.00890 | 33028 ft | 549 kts | 85° |
| 2026-05-06 19:03 | 33.61047 | 136.09989 | 33048 ft | 548 kts | 85° |
| 2026-05-06 19:04 | 33.61888 | 136.19029 | 33054 ft | 548 kts | 85° |
| 2026-05-06 19:04 | 33.62727 | 136.28123 | 33051 ft | 548 kts | 85° |
| 2026-05-06 19:05 | 33.63559 | 136.37206 | 33047 ft | 548 kts | 86° |
| 2026-05-06 19:05 | 33.64386 | 136.46308 | 33051 ft | 549 kts | 86° |
| 2026-05-06 19:06 | 33.65208 | 136.55430 | 33049 ft | 550 kts | 86° |
| 2026-05-06 19:06 | 33.66024 | 136.64569 | 33045 ft | 551 kts | 86° |
| 2026-05-06 19:07 | 33.66836 | 136.73731 | 33046 ft | 552 kts | 86° |
| 2026-05-06 19:07 | 33.67642 | 136.82911 | 33042 ft | 553 kts | 86° |
| 2026-05-06 19:08 | 33.68444 | 136.92119 | 33040 ft | 553 kts | 86° |
| 2026-05-06 19:08 | 33.69232 | 137.01244 | 33042 ft | 553 kts | 86° |
| 2026-05-06 19:09 | 33.70017 | 137.10434 | 33036 ft | 553 kts | 87° |
| 2026-05-06 19:09 | 33.70437 | 137.19626 | 33044 ft | 551 kts | 91° |
| 2026-05-06 19:10 | 33.70672 | 137.28824 | 33042 ft | 551 kts | 91° |
| 2026-05-06 19:10 | 33.70909 | 137.38028 | 33016 ft | 551 kts | 91° |
| 2026-05-06 19:11 | 33.71169 | 137.47237 | 33034 ft | 551 kts | 91° |
| 2026-05-06 19:11 | 33.71433 | 137.56444 | 33036 ft | 551 kts | 91° |
| 2026-05-06 19:12 | 33.71647 | 137.64099 | 33031 ft | 551 kts | 91° |
| 2026-05-06 19:12 | 33.71935 | 137.74818 | 33034 ft | 552 kts | 91° |
| 2026-05-06 19:13 | 33.72174 | 137.84037 | 33029 ft | 552 kts | 91° |
| 2026-05-06 19:13 | 33.72368 | 137.91709 | 33027 ft | 552 kts | 91° |
| 2026-05-06 19:14 | 33.72596 | 138.00943 | 33034 ft | 553 kts | 91° |
| 2026-05-06 19:14 | 33.72817 | 138.10179 | 33033 ft | 554 kts | 91° |
| 2026-05-06 19:15 | 33.73031 | 138.19432 | 33034 ft | 554 kts | 91° |
| 2026-05-06 19:15 | 33.73239 | 138.28699 | 33032 ft | 555 kts | 91° |
| 2026-05-06 19:16 | 33.73439 | 138.37919 | 33027 ft | 555 kts | 91° |
| 2026-05-06 19:16 | 33.73992 | 138.47183 | 33032 ft | 558 kts | 80° |
| 2026-05-06 19:17 | 33.76420 | 138.56036 | 33050 ft | 560 kts | 64° |
| 2026-05-06 19:17 | 33.80381 | 138.64060 | 33046 ft | 558 kts | 56° |
| 2026-05-06 19:18 | 33.84526 | 138.71977 | 33043 ft | 559 kts | 57° |
| 2026-05-06 19:18 | 33.88608 | 138.79976 | 33048 ft | 560 kts | 57° |
| 2026-05-06 19:19 | 33.92615 | 138.87960 | 33059 ft | 561 kts | 57° |
| 2026-05-06 19:19 | 33.96644 | 138.96014 | 33052 ft | 562 kts | 57° |
| 2026-05-06 19:20 | 34.00680 | 139.04083 | 33063 ft | 562 kts | 57° |
| 2026-05-06 19:20 | 34.04715 | 139.12161 | 33048 ft | 562 kts | 57° |
| 2026-05-06 19:21 | 34.08745 | 139.20244 | 33056 ft | 562 kts | 57° |
| 2026-05-06 19:21 | 34.12776 | 139.28350 | 33054 ft | 562 kts | 57° |
| 2026-05-06 19:22 | 34.16771 | 139.36397 | 33054 ft | 562 kts | 57° |
| 2026-05-06 19:22 | 34.20798 | 139.44525 | 33297 ft | 565 kts | 57° |
| 2026-05-06 19:22 | 34.22815 | 139.48603 | 33737 ft | 563 kts | 57° |
| 2026-05-06 19:23 | 34.24817 | 139.52660 | 34196 ft | 561 kts | 57° |
| 2026-05-06 19:23 | 34.26814 | 139.56708 | 34583 ft | 559 kts | 57° |
| 2026-05-06 19:23 | 34.28802 | 139.60744 | 34945 ft | 558 kts | 57° |
| 2026-05-06 19:23 | 34.30784 | 139.64772 | 35283 ft | 557 kts | 57° |
| 2026-05-06 19:24 | 34.32764 | 139.68799 | 35569 ft | 557 kts | 57° |
| 2026-05-06 19:24 | 34.34743 | 139.72829 | 35860 ft | 557 kts | 57° |
| 2026-05-06 19:24 | 34.36722 | 139.76864 | 36164 ft | 556 kts | 56° |
| 2026-05-06 19:24 | 34.38700 | 139.80901 | 36454 ft | 556 kts | 56° |
| 2026-05-06 19:25 | 34.40670 | 139.84927 | 36733 ft | 556 kts | 56° |
| 2026-05-06 19:25 | 34.42636 | 139.88949 | 36996 ft | 555 kts | 56° |
| 2026-05-06 19:25 | 34.44603 | 139.92978 | 37255 ft | 555 kts | 56° |
| 2026-05-06 19:25 | 34.46544 | 139.96958 | 37507 ft | 555 kts | 56° |
| 2026-05-06 19:26 | 34.48506 | 140.00987 | 37734 ft | 555 kts | 56° |
| 2026-05-06 19:26 | 34.50478 | 140.05038 | 37858 ft | 558 kts | 56° |
| 2026-05-06 19:26 | 34.52459 | 140.09112 | 37961 ft | 560 kts | 56° |
| 2026-05-06 19:26 | 34.54438 | 140.13189 | 38103 ft | 562 kts | 56° |
| 2026-05-06 19:27 | 34.56421 | 140.17279 | 38259 ft | 562 kts | 56° |
| 2026-05-06 19:27 | 34.58403 | 140.21373 | 38385 ft | 564 kts | 56° |
| 2026-05-06 19:27 | 34.60393 | 140.25487 | 38477 ft | 566 kts | 56° |
| 2026-05-06 19:27 | 34.62391 | 140.29623 | 38584 ft | 567 kts | 57° |
| 2026-05-06 19:28 | 34.64364 | 140.33713 | 38705 ft | 568 kts | 57° |
| 2026-05-06 19:28 | 34.66361 | 140.37857 | 38823 ft | 569 kts | 57° |
| 2026-05-06 19:28 | 34.68366 | 140.42021 | 38915 ft | 569 kts | 57° |
| 2026-05-06 19:29 | 34.72323 | 140.50353 | 39019 ft | 570 kts | 57° |
| 2026-05-06 19:29 | 34.76195 | 140.58791 | 39060 ft | 572 kts | 58° |
| 2026-05-06 19:30 | 34.80060 | 140.67277 | 39074 ft | 574 kts | 58° |
| 2026-05-06 19:30 | 34.83949 | 140.75791 | 39063 ft | 576 kts | 58° |
| 2026-05-06 19:31 | 34.87849 | 140.84319 | 39062 ft | 576 kts | 58° |
| 2026-05-06 19:31 | 34.93655 | 140.97054 | 39058 ft | 575 kts | 58° |
| 2026-05-06 19:32 | 34.97527 | 141.05576 | 39058 ft | 573 kts | 58° |
| 2026-05-06 19:32 | 35.01377 | 141.14071 | 39061 ft | 572 kts | 58° |
| 2026-05-06 19:33 | 35.05210 | 141.22550 | 39063 ft | 570 kts | 58° |
| 2026-05-06 19:33 | 35.09036 | 141.31033 | 39069 ft | 570 kts | 57° |
| 2026-05-06 19:34 | 35.12851 | 141.39516 | 39072 ft | 569 kts | 57° |
| 2026-05-06 19:34 | 35.16662 | 141.48009 | 39072 ft | 569 kts | 57° |
| 2026-05-06 19:35 | 35.20439 | 141.56445 | 39069 ft | 569 kts | 57° |
| 2026-05-06 19:35 | 35.24239 | 141.64953 | 39073 ft | 570 kts | 57° |
| 2026-05-06 19:36 | 35.28030 | 141.73465 | 39073 ft | 570 kts | 57° |
| 2026-05-06 19:36 | 35.31821 | 141.82000 | 39083 ft | 571 kts | 57° |
| 2026-05-06 19:37 | 35.35619 | 141.90570 | 39078 ft | 571 kts | 57° |
| 2026-05-06 19:37 | 35.38766 | 141.97687 | 39078 ft | 572 kts | 57° |
| 2026-05-06 19:38 | 35.43191 | 142.07721 | 39081 ft | 572 kts | 57° |
| 2026-05-06 19:38 | 35.46950 | 142.16269 | 39082 ft | 573 kts | 57° |
| 2026-05-06 19:39 | 35.50730 | 142.24886 | 39080 ft | 573 kts | 58° |
| 2026-05-06 19:39 | 35.54507 | 142.33520 | 39089 ft | 574 kts | 57° |
| 2026-05-06 19:40 | 35.58277 | 142.42158 | 39088 ft | 574 kts | 58° |
| 2026-05-06 19:40 | 35.62044 | 142.50812 | 39090 ft | 574 kts | 58° |
| 2026-05-06 19:41 | 35.65803 | 142.59470 | 39093 ft | 574 kts | 57° |
| 2026-05-06 19:41 | 35.69556 | 142.68138 | 39088 ft | 574 kts | 58° |
| 2026-05-06 19:42 | 35.73304 | 142.76816 | 39103 ft | 574 kts | 57° |
| 2026-05-06 19:42 | 35.77021 | 142.85445 | 39091 ft | 574 kts | 58° |
| 2026-05-06 19:43 | 35.80760 | 142.94147 | 39097 ft | 574 kts | 58° |
| 2026-05-06 19:43 | 35.84492 | 143.02857 | 39099 ft | 574 kts | 58° |
| 2026-05-06 19:44 | 35.88219 | 143.11577 | 39100 ft | 574 kts | 58° |
| 2026-05-06 19:44 | 35.91627 | 143.20514 | 39091 ft | 579 kts | 67° |
| 2026-05-06 19:45 | 35.93817 | 143.30097 | 39109 ft | 582 kts | 78° |
| 2026-05-06 19:45 | 35.94839 | 143.40019 | 39106 ft | 583 kts | 83° |
| 2026-05-06 19:46 | 35.95748 | 143.49901 | 39121 ft | 584 kts | 82° |
| 2026-05-06 19:46 | 35.96772 | 143.59842 | 39112 ft | 585 kts | 82° |
| 2026-05-06 19:47 | 35.97785 | 143.69818 | 39115 ft | 585 kts | 82° |
| 2026-05-06 19:47 | 35.98785 | 143.79823 | 39094 ft | 586 kts | 82° |
| 2026-05-06 19:48 | 35.99774 | 143.89817 | 39113 ft | 586 kts | 82° |
| 2026-05-06 19:48 | 36.00754 | 143.99759 | 39120 ft | 585 kts | 81° |
| 2026-05-06 19:49 | 36.01567 | 144.04672 | 39109 ft | 583 kts | 69° |
| 2026-05-06 19:49 | 36.03042 | 144.09297 | 39130 ft | 576 kts | 59° |
| 2026-05-06 19:49 | 36.07430 | 144.17407 | 39116 ft | 557 kts | 39° |
| 2026-05-06 19:50 | 36.12838 | 144.24241 | 39129 ft | 556 kts | 38° |
| 2026-05-06 19:50 | 36.18258 | 144.31125 | 39142 ft | 559 kts | 38° |
| 2026-05-06 19:51 | 36.23637 | 144.38118 | 39134 ft | 561 kts | 39° |
| 2026-05-06 19:51 | 36.28961 | 144.45125 | 39128 ft | 561 kts | 39° |
| 2026-05-06 19:52 | 36.34311 | 144.52181 | 39143 ft | 561 kts | 39° |
| 2026-05-06 19:52 | 36.39656 | 144.59232 | 39130 ft | 560 kts | 39° |
| 2026-05-06 19:53 | 36.44985 | 144.66271 | 39129 ft | 559 kts | 39° |
| 2026-05-06 19:53 | 36.50266 | 144.73260 | 39128 ft | 557 kts | 39° |
| 2026-05-06 19:54 | 36.55574 | 144.80300 | 39134 ft | 557 kts | 39° |
| 2026-05-06 19:54 | 36.60862 | 144.87330 | 39129 ft | 556 kts | 39° |
| 2026-05-06 19:55 | 36.66141 | 144.94364 | 39130 ft | 555 kts | 39° |
| 2026-05-06 19:55 | 36.71404 | 145.01391 | 39157 ft | 555 kts | 39° |
| 2026-05-06 19:56 | 36.76644 | 145.08401 | 39144 ft | 555 kts | 39° |
| 2026-05-06 19:56 | 36.81912 | 145.15464 | 39133 ft | 555 kts | 39° |
| 2026-05-06 19:57 | 36.87176 | 145.22540 | 39137 ft | 555 kts | 39° |
| 2026-05-06 19:57 | 36.92441 | 145.29630 | 39150 ft | 557 kts | 39° |
| 2026-05-06 19:58 | 36.97675 | 145.36695 | 39146 ft | 557 kts | 39° |
| 2026-05-06 19:58 | 37.02941 | 145.43819 | 39135 ft | 558 kts | 39° |
| 2026-05-06 19:59 | 37.08220 | 145.50976 | 39142 ft | 558 kts | 39° |
| 2026-05-06 19:59 | 37.13481 | 145.58125 | 39152 ft | 558 kts | 39° |
| 2026-05-06 20:00 | 37.18718 | 145.65338 | 39137 ft | 562 kts | 43° |
| 2026-05-06 20:00 | 37.23268 | 145.73351 | 39149 ft | 571 kts | 52° |
| 2026-05-06 20:01 | 37.27427 | 145.81856 | 39168 ft | 572 kts | 53° |
| 2026-05-06 20:01 | 37.31595 | 145.90404 | 39145 ft | 573 kts | 53° |
| 2026-05-06 20:02 | 37.35088 | 145.97481 | 39143 ft | 573 kts | 52° |
| 2026-05-06 20:02 | 37.40005 | 146.07390 | 39157 ft | 574 kts | 52° |
| 2026-05-06 20:03 | 37.43550 | 146.14542 | 39152 ft | 575 kts | 52° |
| 2026-05-06 20:03 | 37.47780 | 146.23113 | 39150 ft | 576 kts | 52° |
| 2026-05-06 20:04 | 37.51973 | 146.31637 | 39171 ft | 576 kts | 52° |
| 2026-05-06 20:04 | 37.56199 | 146.40250 | 39161 ft | 577 kts | 52° |
| 2026-05-06 20:05 | 37.60418 | 146.48873 | 39156 ft | 577 kts | 52° |
| 2026-05-06 20:05 | 37.64609 | 146.57459 | 39155 ft | 578 kts | 52° |
| 2026-05-06 20:06 | 37.68819 | 146.66107 | 39158 ft | 577 kts | 52° |
| 2026-05-06 20:06 | 37.73019 | 146.74756 | 39163 ft | 577 kts | 52° |
| 2026-05-06 20:07 | 37.77207 | 146.83405 | 39159 ft | 577 kts | 53° |
| 2026-05-06 20:07 | 37.81393 | 146.92072 | 39163 ft | 577 kts | 53° |
| 2026-05-06 20:08 | 37.85575 | 147.00751 | 39184 ft | 577 kts | 53° |
| 2026-05-06 20:08 | 37.89747 | 147.09432 | 39162 ft | 578 kts | 53° |
| 2026-05-06 20:09 | 37.93919 | 147.18140 | 39170 ft | 578 kts | 53° |
| 2026-05-06 20:09 | 37.98088 | 147.26864 | 39167 ft | 579 kts | 53° |
| 2026-05-06 20:10 | 38.02227 | 147.35549 | 39167 ft | 579 kts | 53° |
| 2026-05-06 20:10 | 38.06403 | 147.44334 | 39182 ft | 580 kts | 53° |
| 2026-05-06 20:11 | 38.10573 | 147.53130 | 39177 ft | 581 kts | 53° |
| 2026-05-06 20:11 | 38.14714 | 147.61890 | 39178 ft | 582 kts | 53° |
| 2026-05-06 20:12 | 38.18873 | 147.70713 | 39181 ft | 582 kts | 53° |
| 2026-05-06 20:12 | 38.23035 | 147.79565 | 39180 ft | 583 kts | 53° |
| 2026-05-06 20:13 | 38.27197 | 147.88440 | 39169 ft | 583 kts | 53° |
| 2026-05-06 20:13 | 38.31346 | 147.97313 | 39184 ft | 583 kts | 53° |
| 2026-05-06 20:14 | 38.35491 | 148.06203 | 39185 ft | 584 kts | 53° |
| 2026-05-06 20:14 | 38.39633 | 148.15109 | 39179 ft | 584 kts | 53° |
| 2026-05-06 20:15 | 38.43767 | 148.24023 | 39214 ft | 584 kts | 53° |
| 2026-05-06 20:15 | 38.47875 | 148.32905 | 39187 ft | 584 kts | 54° |
| 2026-05-06 20:16 | 38.51999 | 148.41849 | 39191 ft | 584 kts | 54° |
| 2026-05-06 20:16 | 38.56117 | 148.50804 | 39198 ft | 584 kts | 54° |
| 2026-05-06 20:17 | 38.60221 | 148.59754 | 39196 ft | 583 kts | 54° |
| 2026-05-06 20:17 | 38.64315 | 148.68706 | 39193 ft | 583 kts | 54° |
| 2026-05-06 20:18 | 38.68403 | 148.77670 | 39212 ft | 583 kts | 54° |
| 2026-05-06 20:18 | 38.72484 | 148.86643 | 39201 ft | 583 kts | 54° |
| 2026-05-06 20:19 | 38.76542 | 148.95592 | 39196 ft | 584 kts | 54° |
| 2026-05-06 20:19 | 38.80614 | 149.04597 | 39219 ft | 584 kts | 54° |
| 2026-05-06 20:20 | 38.84684 | 149.13623 | 39192 ft | 585 kts | 54° |
| 2026-05-06 20:20 | 38.88757 | 149.22682 | 39193 ft | 585 kts | 54° |
| 2026-05-06 20:21 | 38.92820 | 149.31745 | 39204 ft | 585 kts | 54° |
| 2026-05-06 20:21 | 38.96871 | 149.40808 | 39191 ft | 585 kts | 54° |
| 2026-05-06 20:22 | 39.00918 | 149.49888 | 39207 ft | 585 kts | 54° |
| 2026-05-06 20:22 | 39.04930 | 149.58915 | 39190 ft | 585 kts | 54° |
| 2026-05-06 20:23 | 39.08966 | 149.68023 | 39194 ft | 585 kts | 54° |
| 2026-05-06 20:23 | 39.12991 | 149.77132 | 39197 ft | 585 kts | 54° |
| 2026-05-06 20:24 | 39.17016 | 149.86251 | 39198 ft | 585 kts | 54° |
| 2026-05-06 20:24 | 39.21061 | 149.95342 | 39204 ft | 585 kts | 54° |
| 2026-05-06 20:25 | 39.25087 | 150.04384 | 39198 ft | 585 kts | 54° |
| 2026-05-06 20:25 | 39.29133 | 150.13514 | 39199 ft | 585 kts | 54° |
| 2026-05-06 20:26 | 39.33157 | 150.22635 | 39207 ft | 585 kts | 54° |
| 2026-05-06 20:26 | 39.37179 | 150.31781 | 39202 ft | 585 kts | 54° |
| 2026-05-06 20:27 | 39.41199 | 150.40947 | 39203 ft | 585 kts | 54° |
| 2026-05-06 20:27 | 39.45209 | 150.50117 | 39215 ft | 586 kts | 54° |
| 2026-05-06 20:28 | 39.49198 | 150.59266 | 39215 ft | 586 kts | 54° |
| 2026-05-06 20:28 | 39.53205 | 150.68481 | 39204 ft | 586 kts | 54° |
| 2026-05-06 20:29 | 39.57208 | 150.77712 | 39217 ft | 587 kts | 55° |
| 2026-05-06 20:29 | 39.61171 | 150.86884 | 39209 ft | 587 kts | 55° |
| 2026-05-06 20:30 | 39.67138 | 151.00747 | 39209 ft | 586 kts | 56° |
| 2026-05-06 20:31 | 39.71110 | 151.10008 | 39207 ft | 587 kts | 55° |
| 2026-05-06 20:31 | 39.75076 | 151.19280 | 39211 ft | 587 kts | 55° |
| 2026-05-06 20:32 | 39.79037 | 151.28568 | 39208 ft | 587 kts | 56° |
| 2026-05-06 20:32 | 39.82995 | 151.37877 | 39219 ft | 588 kts | 56° |
| 2026-05-06 20:33 | 39.86928 | 151.47158 | 39213 ft | 589 kts | 56° |
| 2026-05-06 20:33 | 39.90876 | 151.56502 | 39213 ft | 589 kts | 56° |
| 2026-05-06 20:34 | 39.94826 | 151.65878 | 39225 ft | 590 kts | 56° |
| 2026-05-06 20:34 | 39.98770 | 151.75270 | 39209 ft | 591 kts | 56° |
| 2026-05-06 20:35 | 40.02714 | 151.84692 | 39213 ft | 591 kts | 56° |
| 2026-05-06 20:35 | 40.06650 | 151.94123 | 39226 ft | 592 kts | 56° |
| 2026-05-06 20:36 | 40.10582 | 152.03573 | 39229 ft | 592 kts | 57° |
| 2026-05-06 20:36 | 40.14505 | 152.13031 | 39215 ft | 591 kts | 57° |
| 2026-05-06 20:37 | 40.18411 | 152.22482 | 39209 ft | 590 kts | 57° |
| 2026-05-06 20:37 | 40.22279 | 152.31866 | 39199 ft | 588 kts | 57° |
| 2026-05-06 20:38 | 40.26151 | 152.41290 | 39221 ft | 587 kts | 57° |
| 2026-05-06 20:38 | 40.30009 | 152.50708 | 39205 ft | 586 kts | 57° |
| 2026-05-06 20:39 | 40.33852 | 152.60116 | 39205 ft | 586 kts | 57° |
| 2026-05-06 20:39 | 40.37696 | 152.69557 | 39220 ft | 587 kts | 57° |
| 2026-05-06 20:40 | 40.41540 | 152.79027 | 39225 ft | 589 kts | 57° |
| 2026-05-06 20:40 | 40.45387 | 152.88537 | 39211 ft | 591 kts | 57° |
| 2026-05-06 20:41 | 40.49216 | 152.98033 | 39214 ft | 592 kts | 57° |
| 2026-05-06 20:41 | 40.53067 | 153.07614 | 39214 ft | 593 kts | 57° |
| 2026-05-06 20:42 | 40.56916 | 153.17223 | 39222 ft | 594 kts | 57° |
| 2026-05-06 20:42 | 40.60771 | 153.26876 | 39214 ft | 595 kts | 57° |
| 2026-05-06 20:43 | 40.64613 | 153.36525 | 39222 ft | 592 kts | 58° |
| 2026-05-06 20:43 | 40.68371 | 153.46009 | 39204 ft | 584 kts | 58° |
| 2026-05-06 20:44 | 40.72120 | 153.55486 | 39215 ft | 583 kts | 58° |
| 2026-05-06 20:44 | 40.75862 | 153.64971 | 39221 ft | 583 kts | 58° |
| 2026-05-06 20:45 | 40.79601 | 153.74477 | 39235 ft | 584 kts | 58° |
| 2026-05-06 20:45 | 40.83340 | 153.84018 | 39225 ft | 586 kts | 58° |
| 2026-05-06 20:46 | 40.86465 | 153.92020 | 39228 ft | 588 kts | 58° |
| 2026-05-06 20:46 | 40.90832 | 154.03235 | 39224 ft | 591 kts | 58° |
| 2026-05-06 20:47 | 40.94586 | 154.12916 | 39232 ft | 592 kts | 58° |
| 2026-05-06 20:47 | 40.98342 | 154.22631 | 39221 ft | 593 kts | 58° |
| 2026-05-06 20:48 | 41.02088 | 154.32353 | 39217 ft | 593 kts | 58° |
| 2026-05-06 20:48 | 41.05200 | 154.40453 | 39213 ft | 592 kts | 58° |
| 2026-05-06 20:49 | 41.09531 | 154.51765 | 39207 ft | 591 kts | 58° |
| 2026-05-06 20:49 | 41.12639 | 154.59907 | 39208 ft | 590 kts | 58° |
| 2026-05-06 20:50 | 41.16281 | 154.69485 | 39222 ft | 575 kts | 59° |
| 2026-05-06 20:50 | 41.19838 | 154.78881 | 39206 ft | 565 kts | 59° |
| 2026-05-06 20:51 | 41.23369 | 154.88208 | 39213 ft | 564 kts | 59° |
| 2026-05-06 20:51 | 41.26870 | 154.97485 | 39220 ft | 565 kts | 59° |
| 2026-05-06 20:52 | 41.30398 | 155.06873 | 39224 ft | 568 kts | 59° |
| 2026-05-06 20:52 | 41.33928 | 155.16300 | 39222 ft | 570 kts | 59° |
| 2026-05-06 20:53 | 41.37462 | 155.25770 | 39223 ft | 572 kts | 59° |
| 2026-05-06 20:53 | 41.40982 | 155.35234 | 39220 ft | 573 kts | 59° |
| 2026-05-06 20:54 | 41.44517 | 155.44772 | 39211 ft | 574 kts | 59° |
| 2026-05-06 20:54 | 41.48045 | 155.54321 | 39209 ft | 574 kts | 59° |
| 2026-05-06 20:55 | 41.51566 | 155.63884 | 39224 ft | 573 kts | 59° |
| 2026-05-06 20:55 | 41.55076 | 155.73447 | 39212 ft | 573 kts | 59° |
| 2026-05-06 20:56 | 41.58570 | 155.82998 | 39215 ft | 571 kts | 59° |
| 2026-05-06 20:56 | 41.62028 | 155.92483 | 39210 ft | 570 kts | 59° |
| 2026-05-06 20:57 | 41.65494 | 156.02018 | 39227 ft | 569 kts | 60° |
| 2026-05-06 20:57 | 41.68939 | 156.11531 | 39206 ft | 567 kts | 60° |
| 2026-05-06 20:58 | 41.72361 | 156.21014 | 39198 ft | 564 kts | 60° |
| 2026-05-06 20:58 | 41.75755 | 156.30449 | 39213 ft | 562 kts | 60° |
| 2026-05-06 20:59 | 41.79136 | 156.39878 | 39203 ft | 560 kts | 60° |
| 2026-05-06 20:59 | 41.82499 | 156.49286 | 39207 ft | 559 kts | 60° |
| 2026-05-06 21:00 | 41.85828 | 156.58632 | 39224 ft | 558 kts | 60° |
| 2026-05-06 21:00 | 41.89172 | 156.68050 | 39215 ft | 559 kts | 60° |
| 2026-05-06 21:01 | 41.92510 | 156.77481 | 39212 ft | 559 kts | 61° |
| 2026-05-06 21:01 | 41.95824 | 156.86880 | 39210 ft | 560 kts | 61° |
| 2026-05-06 21:02 | 41.99159 | 156.96368 | 39219 ft | 561 kts | 61° |
| 2026-05-06 21:02 | 42.02494 | 157.05890 | 39198 ft | 562 kts | 61° |
| 2026-05-06 21:03 | 42.05817 | 157.15412 | 39210 ft | 562 kts | 61° |
| 2026-05-06 21:03 | 42.09111 | 157.24883 | 39221 ft | 562 kts | 61° |
| 2026-05-06 21:04 | 42.12418 | 157.34422 | 39200 ft | 561 kts | 61° |
| 2026-05-06 21:04 | 42.15716 | 157.43965 | 39207 ft | 560 kts | 61° |
| 2026-05-06 21:05 | 42.18998 | 157.53500 | 39196 ft | 559 kts | 61° |
| 2026-05-06 21:05 | 42.22254 | 157.62993 | 39203 ft | 557 kts | 61° |
| 2026-05-06 21:06 | 42.25475 | 157.72411 | 39190 ft | 555 kts | 61° |
| 2026-05-06 21:06 | 42.28702 | 157.81878 | 39191 ft | 553 kts | 61° |
| 2026-05-06 21:07 | 42.31904 | 157.91308 | 39207 ft | 551 kts | 61° |
| 2026-05-06 21:07 | 42.35092 | 158.00727 | 39193 ft | 550 kts | 61° |
| 2026-05-06 21:08 | 42.38265 | 158.10133 | 39193 ft | 549 kts | 61° |
| 2026-05-06 21:08 | 42.41429 | 158.19546 | 39195 ft | 549 kts | 62° |
| 2026-05-06 21:09 | 42.44581 | 158.28955 | 39191 ft | 549 kts | 62° |
| 2026-05-06 21:09 | 42.47709 | 158.38322 | 39186 ft | 549 kts | 62° |
| 2026-05-06 21:10 | 42.50846 | 158.47754 | 39186 ft | 549 kts | 62° |
| 2026-05-06 21:10 | 42.53979 | 158.57202 | 39189 ft | 549 kts | 62° |
| 2026-05-06 21:11 | 42.57104 | 158.66664 | 39190 ft | 549 kts | 62° |
| 2026-05-06 21:11 | 42.60225 | 158.76141 | 39185 ft | 550 kts | 62° |
| 2026-05-06 21:12 | 42.63341 | 158.85638 | 39189 ft | 550 kts | 62° |
| 2026-05-06 21:12 | 42.66427 | 158.95080 | 39187 ft | 550 kts | 62° |
| 2026-05-06 21:13 | 42.69523 | 159.04585 | 39186 ft | 549 kts | 62° |
| 2026-05-06 21:13 | 42.72604 | 159.14077 | 39175 ft | 548 kts | 62° |
| 2026-05-06 21:14 | 42.75672 | 159.23563 | 39182 ft | 547 kts | 62° |
| 2026-05-06 21:14 | 42.78728 | 159.33045 | 39171 ft | 545 kts | 62° |
| 2026-05-06 21:15 | 42.81764 | 159.42499 | 39172 ft | 544 kts | 62° |
| 2026-05-06 21:15 | 42.84768 | 159.51883 | 39171 ft | 543 kts | 62° |
| 2026-05-06 21:16 | 42.87787 | 159.61351 | 39181 ft | 543 kts | 62° |
| 2026-05-06 21:16 | 42.90790 | 159.70799 | 39175 ft | 542 kts | 62° |
| 2026-05-06 21:17 | 42.93764 | 159.80192 | 39172 ft | 542 kts | 63° |
| 2026-05-06 21:17 | 42.96752 | 159.89663 | 39186 ft | 542 kts | 63° |
| 2026-05-06 21:18 | 42.99732 | 159.99135 | 39170 ft | 542 kts | 62° |
| 2026-05-06 21:18 | 43.02934 | 160.08421 | 39166 ft | 539 kts | 59° |
| 2026-05-06 21:19 | 43.06279 | 160.17602 | 39191 ft | 539 kts | 59° |
| 2026-05-06 21:19 | 43.09598 | 160.26731 | 39171 ft | 539 kts | 59° |
| 2026-05-06 21:20 | 43.12906 | 160.35957 | 39166 ft | 539 kts | 59° |
| 2026-05-06 21:20 | 43.16189 | 160.45191 | 39156 ft | 539 kts | 59° |
| 2026-05-06 21:21 | 43.19462 | 160.54437 | 39176 ft | 538 kts | 60° |
| 2026-05-06 21:21 | 43.22724 | 160.63674 | 39161 ft | 538 kts | 60° |
| 2026-05-06 21:22 | 43.25980 | 160.72919 | 39156 ft | 537 kts | 60° |
| 2026-05-06 21:22 | 43.29201 | 160.82094 | 39156 ft | 537 kts | 60° |
| 2026-05-06 21:23 | 43.32435 | 160.91339 | 39161 ft | 536 kts | 60° |
| 2026-05-06 21:23 | 43.35659 | 161.00587 | 39153 ft | 536 kts | 60° |
| 2026-05-06 21:24 | 43.38874 | 161.09840 | 39149 ft | 536 kts | 60° |
| 2026-05-06 21:24 | 43.42083 | 161.19105 | 39149 ft | 536 kts | 60° |
| 2026-05-06 21:25 | 43.45282 | 161.28375 | 39170 ft | 536 kts | 60° |
| 2026-05-06 21:25 | 43.48477 | 161.37663 | 39148 ft | 536 kts | 60° |
| 2026-05-06 21:26 | 43.51641 | 161.46895 | 39134 ft | 536 kts | 60° |
| 2026-05-06 21:26 | 43.54824 | 161.56212 | 39137 ft | 536 kts | 60° |
| 2026-05-06 21:27 | 43.57992 | 161.65519 | 39140 ft | 536 kts | 60° |
| 2026-05-06 21:27 | 43.61148 | 161.74822 | 39140 ft | 535 kts | 60° |
| 2026-05-06 21:28 | 43.64279 | 161.84082 | 39140 ft | 535 kts | 60° |
| 2026-05-06 21:28 | 43.67423 | 161.93413 | 39137 ft | 535 kts | 60° |
| 2026-05-06 21:29 | 43.70560 | 162.02756 | 39137 ft | 535 kts | 61° |
| 2026-05-06 21:29 | 43.73684 | 162.12091 | 39132 ft | 535 kts | 61° |
| 2026-05-06 21:30 | 43.76805 | 162.21451 | 39138 ft | 535 kts | 61° |
| 2026-05-06 21:30 | 43.79917 | 162.30816 | 39131 ft | 535 kts | 61° |
| 2026-05-06 21:31 | 43.82999 | 162.40126 | 39131 ft | 535 kts | 61° |
| 2026-05-06 21:31 | 43.86097 | 162.49512 | 39138 ft | 535 kts | 61° |
| 2026-05-06 21:32 | 43.89185 | 162.58903 | 39125 ft | 535 kts | 61° |
| 2026-05-06 21:32 | 43.93806 | 162.73021 | 39119 ft | 535 kts | 61° |
| 2026-05-06 21:33 | 43.96872 | 162.82429 | 39134 ft | 535 kts | 61° |
| 2026-05-06 21:33 | 43.99918 | 162.91809 | 39123 ft | 535 kts | 61° |
| 2026-05-06 21:34 | 44.02971 | 163.01243 | 39109 ft | 535 kts | 61° |
| 2026-05-06 21:34 | 44.06013 | 163.10678 | 39111 ft | 535 kts | 62° |
| 2026-05-06 21:35 | 44.09048 | 163.20125 | 39116 ft | 535 kts | 62° |
| 2026-05-06 21:35 | 44.12076 | 163.29583 | 39115 ft | 535 kts | 62° |
| 2026-05-06 21:36 | 44.14584 | 163.37442 | 39111 ft | 534 kts | 62° |
| 2026-05-06 21:36 | 44.17596 | 163.46913 | 39132 ft | 534 kts | 62° |
| 2026-05-06 21:37 | 44.20598 | 163.56387 | 39107 ft | 535 kts | 62° |
| 2026-05-06 21:37 | 44.23598 | 163.65888 | 39091 ft | 535 kts | 62° |
| 2026-05-06 21:38 | 44.26590 | 163.75400 | 39109 ft | 535 kts | 62° |
| 2026-05-06 21:38 | 44.29555 | 163.84858 | 39099 ft | 535 kts | 62° |
| 2026-05-06 21:39 | 44.32531 | 163.94386 | 39089 ft | 535 kts | 62° |
| 2026-05-06 21:39 | 44.35509 | 164.03958 | 39087 ft | 535 kts | 62° |
| 2026-05-06 21:40 | 44.38456 | 164.13467 | 39093 ft | 536 kts | 62° |
| 2026-05-06 21:40 | 44.41412 | 164.23038 | 39083 ft | 536 kts | 62° |
| 2026-05-06 21:41 | 44.44362 | 164.32625 | 39087 ft | 536 kts | 62° |
| 2026-05-06 21:41 | 44.47302 | 164.42215 | 39082 ft | 536 kts | 62° |
| 2026-05-06 21:42 | 44.50236 | 164.51820 | 39083 ft | 536 kts | 62° |
| 2026-05-06 21:42 | 44.53146 | 164.61386 | 39078 ft | 536 kts | 62° |
| 2026-05-06 21:43 | 44.56067 | 164.71019 | 39086 ft | 536 kts | 62° |
| 2026-05-06 21:43 | 44.58979 | 164.80664 | 39086 ft | 537 kts | 63° |
| 2026-05-06 21:44 | 44.61881 | 164.90311 | 39072 ft | 537 kts | 63° |
| 2026-05-06 21:44 | 44.64760 | 164.99916 | 39070 ft | 537 kts | 63° |
| 2026-05-06 21:45 | 44.67649 | 165.09593 | 39070 ft | 536 kts | 63° |
| 2026-05-06 21:45 | 44.70528 | 165.19273 | 39069 ft | 536 kts | 63° |
| 2026-05-06 21:46 | 44.73396 | 165.28952 | 39069 ft | 536 kts | 63° |
| 2026-05-06 21:46 | 44.76262 | 165.38664 | 39065 ft | 536 kts | 63° |
| 2026-05-06 21:47 | 44.79116 | 165.48371 | 39078 ft | 536 kts | 63° |
| 2026-05-06 21:47 | 44.81942 | 165.58022 | 39063 ft | 536 kts | 63° |
| 2026-05-06 21:48 | 44.84785 | 165.67765 | 39059 ft | 536 kts | 63° |
| 2026-05-06 21:48 | 44.87607 | 165.77478 | 39060 ft | 536 kts | 63° |
| 2026-05-06 21:49 | 44.90428 | 165.87221 | 39054 ft | 537 kts | 63° |
| 2026-05-06 21:49 | 44.93225 | 165.96922 | 39053 ft | 536 kts | 63° |
| 2026-05-06 21:50 | 44.96029 | 166.06687 | 39050 ft | 536 kts | 63° |
| 2026-05-06 21:50 | 44.98824 | 166.16458 | 39060 ft | 536 kts | 63° |
| 2026-05-06 21:51 | 45.01613 | 166.26246 | 39054 ft | 536 kts | 63° |
| 2026-05-06 21:51 | 45.04391 | 166.36031 | 39041 ft | 536 kts | 63° |
| 2026-05-06 21:52 | 45.07138 | 166.45751 | 39039 ft | 536 kts | 64° |
| 2026-05-06 21:52 | 45.09900 | 166.55559 | 39046 ft | 536 kts | 64° |
| 2026-05-06 21:53 | 45.12653 | 166.65376 | 39040 ft | 536 kts | 64° |
| 2026-05-06 21:53 | 45.15398 | 166.75203 | 39040 ft | 536 kts | 64° |
| 2026-05-06 21:54 | 45.18112 | 166.84961 | 39049 ft | 536 kts | 64° |
| 2026-05-06 21:54 | 45.20840 | 166.94804 | 39030 ft | 536 kts | 64° |
| 2026-05-06 21:55 | 45.23556 | 167.04647 | 39051 ft | 536 kts | 64° |
| 2026-05-06 21:55 | 45.26265 | 167.14506 | 39037 ft | 536 kts | 64° |
| 2026-05-06 21:56 | 45.28967 | 167.24376 | 39043 ft | 537 kts | 64° |
| 2026-05-06 21:56 | 45.31663 | 167.34268 | 39028 ft | 537 kts | 64° |
| 2026-05-06 21:57 | 45.34337 | 167.44119 | 39023 ft | 537 kts | 64° |
| 2026-05-06 21:57 | 45.37016 | 167.54028 | 39038 ft | 537 kts | 64° |
| 2026-05-06 21:58 | 45.39686 | 167.63948 | 39025 ft | 537 kts | 64° |
| 2026-05-06 21:58 | 45.42346 | 167.73870 | 39021 ft | 537 kts | 64° |
| 2026-05-06 21:59 | 45.45000 | 167.83812 | 39015 ft | 536 kts | 65° |
| 2026-05-06 21:59 | 45.47645 | 167.93759 | 39021 ft | 536 kts | 65° |
| 2026-05-06 22:00 | 45.50279 | 168.03710 | 39017 ft | 536 kts | 65° |
| 2026-05-06 22:00 | 45.52904 | 168.13663 | 39019 ft | 536 kts | 65° |
| 2026-05-06 22:01 | 45.55500 | 168.23552 | 39022 ft | 536 kts | 65° |
| 2026-05-06 22:01 | 45.58109 | 168.33534 | 39006 ft | 537 kts | 65° |
| 2026-05-06 22:02 | 45.60718 | 168.43555 | 39009 ft | 537 kts | 65° |
| 2026-05-06 22:02 | 45.63311 | 168.53559 | 39004 ft | 537 kts | 65° |
| 2026-05-06 22:03 | 45.65894 | 168.63571 | 39005 ft | 537 kts | 65° |
| 2026-05-06 22:03 | 45.68454 | 168.73535 | 39005 ft | 537 kts | 65° |
| 2026-05-06 22:04 | 45.71023 | 168.83575 | 39000 ft | 537 kts | 65° |
| 2026-05-06 22:04 | 45.73582 | 168.93621 | 39000 ft | 537 kts | 65° |